createdAt,value
2023-05-12T00:01:55.255Z,28.05
2023-05-12T00:04:21.988Z,28.23
2023-05-12T00:06:48.885Z,26.05
2023-05-12T00:09:15.521Z,26.10
2023-05-12T00:11:42.210Z,27.58
2023-05-12T00:14:09.161Z,29.10
2023-05-12T00:16:35.908Z,28.33
2023-05-12T00:19:02.932Z,26.70
2023-05-12T00:21:29.618Z,25.98
2023-05-12T00:23:56.312Z,27.17
2023-05-12T00:26:22.966Z,29.73
2023-05-12T00:28:49.799Z,29.00
2023-05-12T00:31:16.564Z,29.25
2023-05-12T00:33:43.251Z,27.20
2023-05-12T00:36:09.940Z,26.88
2023-05-12T00:38:37.297Z,24.70
2023-05-12T00:41:04.536Z,26.15
2023-05-12T00:43:31.786Z,24.48
2023-05-12T00:45:58.825Z,24.00
2023-05-12T00:48:26.081Z,23.70
2023-05-12T00:50:54.467Z,22.65
2023-05-12T00:53:21.319Z,23.52
2023-05-12T00:55:48.115Z,23.85
2023-05-12T00:58:15.284Z,21.23
2023-05-12T01:00:42.536Z,22.90
2023-05-12T01:03:09.602Z,22.05
2023-05-12T01:05:41.781Z,21.38
2023-05-12T01:08:10.026Z,20.05
2023-05-12T01:10:37.127Z,19.25
2023-05-12T01:13:03.939Z,18.98
2023-05-12T01:15:32.824Z,17.48
2023-05-12T01:18:03.143Z,15.55
2023-05-12T01:20:31.758Z,15.50
2023-05-12T01:22:59.416Z,16.38
2023-05-12T01:25:32.034Z,14.77
2023-05-12T01:28:01.025Z,13.60
2023-05-12T01:30:29.220Z,13.80
2023-05-12T01:32:56.394Z,14.32
2023-05-12T01:35:23.136Z,14.43
2023-05-12T01:37:57.893Z,13.48
2023-05-12T01:40:24.656Z,14.23
2023-05-12T01:42:51.634Z,13.13
2023-05-12T01:45:18.769Z,14.30
2023-05-12T01:47:45.957Z,15.43
2023-05-12T01:50:12.651Z,12.93
2023-05-12T01:52:40.006Z,13.32
2023-05-12T01:55:10.749Z,13.75
2023-05-12T01:57:44.468Z,14.95
2023-05-12T02:00:12.624Z,14.10
2023-05-12T02:02:45.128Z,14.65
2023-05-12T02:05:12.933Z,14.90
2023-05-12T02:07:40.914Z,16.15
2023-05-12T02:10:09.308Z,16.38
2023-05-12T02:12:36.008Z,15.48
2023-05-12T02:15:02.832Z,15.55
2023-05-12T02:17:30.768Z,14.32
2023-05-12T02:20:00.855Z,14.70
2023-05-12T02:22:27.475Z,13.63
2023-05-12T02:24:54.264Z,13.73
2023-05-12T02:27:21.408Z,13.45
2023-05-12T02:29:48.057Z,13.45
2023-05-12T02:32:15.981Z,13.73
2023-05-12T02:34:45.973Z,13.23
2023-05-12T02:37:12.707Z,13.60
2023-05-12T02:39:39.859Z,13.95
2023-05-12T02:42:07.006Z,13.13
2023-05-12T02:44:33.808Z,14.43
2023-05-12T02:47:00.606Z,15.05
2023-05-12T02:49:27.475Z,14.55
2023-05-12T02:51:55.185Z,14.80
2023-05-12T02:54:21.857Z,14.20
2023-05-12T02:56:48.580Z,14.20
2023-05-12T02:59:15.240Z,15.13
2023-05-12T03:01:41.939Z,15.75
2023-05-12T03:04:08.754Z,14.63
2023-05-12T03:06:35.470Z,14.43
2023-05-12T03:09:02.259Z,14.27
2023-05-12T03:11:28.964Z,14.50
2023-05-12T03:13:55.668Z,14.82
2023-05-12T03:16:22.579Z,15.38
2023-05-12T03:18:49.594Z,15.25
2023-05-12T03:21:16.390Z,16.65
2023-05-12T03:23:43.005Z,15.30
2023-05-12T03:26:09.696Z,15.60
2023-05-12T03:28:36.784Z,15.65
2023-05-12T03:31:03.414Z,14.93
2023-05-12T03:33:30.242Z,16.75
2023-05-12T03:35:56.948Z,14.13
2023-05-12T03:38:23.827Z,14.57
2023-05-12T03:40:53.406Z,13.35
2023-05-12T03:43:21.127Z,13.63
2023-05-12T03:45:48.350Z,14.50
2023-05-12T03:48:16.099Z,14.50
2023-05-12T03:50:42.747Z,14.25
2023-05-12T03:53:09.388Z,13.95
2023-05-12T03:55:35.982Z,14.82
2023-05-12T03:58:04.064Z,13.30
2023-05-12T04:00:30.766Z,14.63
2023-05-12T04:02:57.617Z,13.77
2023-05-12T04:05:24.580Z,14.40
2023-05-12T04:07:51.293Z,13.07
2023-05-12T04:10:18.466Z,12.15
2023-05-12T04:12:45.292Z,11.50
2023-05-12T04:15:14.563Z,11.82
2023-05-12T04:17:41.523Z,10.93
2023-05-12T04:20:08.819Z,11.43
2023-05-12T04:22:35.478Z,10.55
2023-05-12T04:25:02.127Z,9.80
2023-05-12T04:27:28.970Z,10.77
2023-05-12T04:29:55.647Z,10.07
2023-05-12T04:32:22.467Z,10.88
2023-05-12T04:34:49.429Z,9.40
2023-05-12T04:37:16.123Z,10.93
2023-05-12T04:39:43.179Z,10.55
2023-05-12T04:42:09.880Z,10.30
2023-05-12T04:44:37.092Z,11.82
2023-05-12T04:47:04.080Z,10.20
2023-05-12T04:49:30.830Z,10.27
2023-05-12T04:51:57.466Z,10.50
2023-05-12T04:54:24.431Z,9.70
2023-05-12T04:56:51.506Z,9.38
2023-05-12T04:59:18.586Z,9.38
2023-05-12T05:01:47.348Z,9.82
2023-05-12T05:04:14.599Z,10.23
2023-05-12T05:06:41.262Z,9.52
2023-05-12T05:09:08.782Z,10.75
2023-05-12T05:11:35.895Z,9.85
2023-05-12T05:14:02.769Z,10.35
2023-05-12T05:16:29.551Z,9.52
2023-05-12T05:18:58.254Z,8.88
2023-05-12T05:21:25.308Z,10.75
2023-05-12T05:23:54.694Z,9.68
2023-05-12T05:26:22.359Z,10.45
2023-05-12T05:28:54.921Z,10.50
2023-05-12T05:31:23.340Z,10.55
2023-05-12T05:33:50.052Z,11.35
2023-05-12T05:36:17.490Z,10.82
2023-05-12T05:38:44.113Z,11.98
2023-05-12T05:41:11.372Z,11.60
2023-05-12T05:43:38.275Z,11.32
2023-05-12T05:46:05.419Z,12.20
2023-05-12T05:48:32.245Z,13.15
2023-05-12T05:50:58.948Z,13.13
2023-05-12T05:53:25.632Z,12.50
2023-05-12T05:55:52.904Z,12.52
2023-05-12T05:58:19.529Z,11.68
2023-05-12T06:00:46.998Z,13.02
2023-05-12T06:03:13.839Z,13.07
2023-05-12T06:05:43.018Z,13.75
2023-05-12T06:08:13.038Z,13.65
2023-05-12T06:10:40.873Z,14.52
2023-05-12T06:13:07.556Z,15.35
2023-05-12T06:15:34.666Z,14.35
2023-05-12T06:18:01.373Z,14.07
2023-05-12T06:20:28.201Z,14.48
2023-05-12T06:22:54.856Z,13.48
2023-05-12T06:25:21.705Z,16.38
2023-05-12T06:27:52.067Z,17.60
2023-05-12T06:30:18.964Z,15.93
2023-05-12T06:32:45.863Z,15.75
2023-05-12T06:35:12.560Z,16.95
2023-05-12T06:37:39.293Z,16.90
2023-05-12T06:40:07.325Z,18.05
2023-05-12T06:42:33.941Z,18.38
2023-05-12T06:45:06.332Z,20.23
2023-05-12T06:47:33.506Z,19.20
2023-05-12T06:50:00.381Z,20.73
2023-05-12T06:52:26.978Z,21.38
2023-05-12T06:54:53.590Z,20.77
2023-05-12T06:57:20.199Z,23.50
2023-05-12T06:59:47.034Z,23.33
2023-05-12T07:02:13.647Z,24.55
2023-05-12T07:04:40.774Z,25.10
2023-05-12T07:07:07.415Z,25.70
2023-05-12T07:09:34.072Z,27.60
2023-05-12T07:12:00.761Z,25.58
2023-05-12T07:14:28.086Z,22.92
2023-05-12T07:16:54.731Z,25.08
2023-05-12T07:19:21.341Z,31.02
2023-05-12T07:21:48.861Z,30.45
2023-05-12T07:24:16.523Z,30.85
2023-05-12T07:26:44.402Z,32.58
2023-05-12T07:29:13.609Z,33.08
2023-05-12T07:31:40.595Z,34.38
2023-05-12T07:34:07.342Z,35.42
2023-05-12T07:36:34.245Z,31.80
2023-05-12T07:39:00.954Z,32.55
2023-05-12T07:41:27.673Z,30.15
2023-05-12T07:43:54.324Z,31.40
2023-05-12T07:46:21.093Z,31.88
2023-05-12T07:48:47.840Z,32.03
2023-05-12T07:51:15.102Z,32.20
2023-05-12T07:53:41.709Z,31.67
2023-05-12T07:56:08.398Z,30.48
2023-05-12T07:58:35.146Z,32.92
2023-05-12T08:01:05.792Z,32.40
2023-05-12T08:03:34.861Z,31.83
2023-05-12T08:06:03.337Z,29.70
2023-05-12T08:08:30.056Z,30.17
2023-05-12T08:10:56.686Z,30.52
2023-05-12T08:13:23.331Z,30.65
2023-05-12T08:15:50.340Z,30.00
2023-05-12T08:18:17.071Z,28.67
2023-05-12T08:20:44.034Z,30.38
2023-05-12T08:23:10.782Z,29.98
2023-05-12T08:25:37.503Z,29.00
2023-05-12T08:28:04.536Z,29.25
2023-05-12T08:30:31.206Z,29.67
2023-05-12T08:32:57.985Z,29.58
2023-05-12T08:35:27.409Z,29.48
2023-05-12T08:37:54.150Z,29.25
2023-05-12T08:40:22.370Z,28.95
2023-05-12T08:43:05.116Z,29.15
2023-05-12T08:45:31.883Z,29.83
2023-05-12T08:47:59.270Z,30.85
2023-05-12T08:50:28.555Z,29.45
2023-05-12T08:52:56.073Z,30.85
2023-05-12T08:55:27.381Z,31.05
2023-05-12T08:57:57.755Z,31.77
2023-05-12T09:00:28.283Z,30.95
2023-05-12T09:02:56.033Z,30.38
2023-05-12T09:05:23.576Z,30.77
2023-05-12T09:07:51.689Z,30.83
2023-05-12T09:10:34.509Z,30.15
2023-05-12T09:13:16.929Z,30.10
2023-05-12T09:15:47.062Z,29.02
2023-05-12T09:18:13.822Z,28.42
2023-05-12T09:20:40.610Z,28.55
2023-05-12T09:23:20.690Z,29.38
2023-05-12T09:25:58.179Z,28.33
2023-05-12T09:28:24.857Z,30.08
2023-05-12T09:30:51.543Z,30.60
2023-05-12T09:33:18.145Z,29.10
2023-05-12T09:35:46.024Z,28.85
2023-05-12T09:38:15.177Z,30.40
2023-05-12T09:40:43.363Z,30.05
2023-05-12T09:43:11.923Z,30.35
2023-05-12T09:45:39.889Z,32.03
2023-05-12T09:48:13.925Z,30.70
2023-05-12T09:50:51.211Z,30.90
2023-05-12T09:53:20.549Z,29.48
2023-05-12T09:55:48.409Z,30.95
2023-05-12T09:58:18.673Z,30.55
2023-05-12T10:03:17.623Z,29.52
2023-05-12T10:05:57.467Z,29.38
2023-05-12T10:08:29.788Z,30.95
2023-05-12T10:10:59.419Z,30.45
2023-05-12T10:13:26.346Z,31.00
2023-05-12T10:15:57.036Z,31.30
2023-05-12T10:18:24.761Z,30.20
2023-05-12T10:20:53.736Z,30.70
2023-05-12T10:23:21.120Z,30.08
2023-05-12T10:25:49.301Z,30.90
2023-05-12T10:28:16.655Z,30.83
2023-05-12T10:30:45.020Z,29.85
2023-05-12T10:33:11.883Z,31.38
2023-05-12T10:35:40.027Z,31.58
2023-05-12T10:38:09.392Z,28.98
2023-05-12T10:40:36.205Z,31.05
2023-05-12T10:43:03.121Z,29.98
2023-05-12T10:45:36.071Z,30.95
2023-05-12T10:48:07.162Z,28.90
2023-05-12T10:50:33.948Z,30.33
2023-05-12T10:53:00.844Z,33.15
2023-05-12T10:55:42.507Z,32.03
2023-05-12T10:58:11.723Z,33.08
2023-05-12T11:00:49.837Z,31.00
2023-05-12T11:03:23.967Z,33.15
2023-05-12T11:06:05.379Z,33.42
2023-05-12T11:08:35.636Z,31.95
2023-05-12T11:11:03.211Z,32.72
2023-05-12T11:13:30.204Z,27.83
2023-05-12T11:15:58.467Z,32.40
2023-05-12T11:18:25.611Z,30.83
2023-05-12T11:20:53.307Z,29.30
2023-05-12T11:23:28.758Z,29.85
2023-05-12T11:25:58.910Z,29.60
2023-05-12T11:28:25.853Z,30.27
2023-05-12T11:30:54.979Z,29.52
2023-05-12T11:33:23.113Z,30.00
2023-05-12T11:35:50.616Z,31.08
2023-05-12T11:38:18.899Z,31.00
2023-05-12T11:40:45.850Z,32.05
2023-05-12T11:43:14.599Z,31.52
2023-05-12T11:45:41.954Z,31.67
2023-05-12T11:48:13.630Z,29.95
2023-05-12T11:50:42.676Z,30.20
2023-05-12T11:53:15.010Z,29.65
2023-05-12T11:55:50.887Z,30.70
2023-05-12T11:58:21.959Z,29.33
2023-05-12T12:00:51.678Z,30.60
2023-05-12T12:03:19.113Z,30.42
2023-05-12T12:05:59.362Z,29.15
2023-05-12T12:08:26.188Z,32.40
2023-05-12T12:10:53.419Z,31.17
2023-05-12T12:13:21.849Z,30.88
2023-05-12T12:15:49.379Z,30.42
2023-05-12T12:18:21.838Z,29.67
2023-05-12T12:20:48.631Z,32.35
2023-05-12T12:23:15.343Z,29.52
2023-05-12T12:25:41.978Z,31.05
2023-05-12T12:28:08.619Z,29.85
2023-05-12T12:30:35.284Z,23.33
2023-05-12T12:33:02.336Z,25.90
2023-05-12T12:35:29.602Z,28.85
2023-05-12T12:37:56.286Z,34.60
2023-05-12T12:40:22.898Z,31.40
2023-05-12T12:42:49.523Z,32.53
2023-05-12T12:45:17.863Z,27.77
2023-05-12T12:47:46.053Z,26.85
2023-05-12T12:50:13.563Z,23.63
2023-05-12T12:52:40.469Z,20.83
2023-05-12T12:55:07.654Z,18.48
2023-05-12T12:57:34.704Z,20.38
2023-05-12T13:00:01.485Z,20.15
2023-05-12T13:02:28.247Z,17.02
2023-05-12T13:04:54.966Z,20.55
2023-05-12T13:07:21.920Z,20.23
2023-05-12T13:09:48.573Z,19.65
2023-05-12T13:12:15.243Z,19.88
2023-05-12T13:14:42.230Z,24.20
2023-05-12T13:17:08.959Z,23.02
2023-05-12T13:19:37.922Z,23.20
2023-05-12T13:22:05.363Z,30.73
2023-05-12T13:24:32.022Z,31.45
2023-05-12T13:26:58.850Z,30.85
2023-05-12T13:29:25.568Z,30.92
2023-05-12T13:31:52.280Z,30.40
2023-05-12T13:34:18.911Z,29.85
2023-05-12T13:36:45.596Z,29.27
2023-05-12T13:39:12.604Z,28.63
2023-05-12T13:41:39.264Z,30.70
2023-05-12T13:44:06.055Z,29.40
2023-05-12T13:46:32.933Z,29.42
2023-05-12T13:48:59.651Z,31.95
2023-05-12T13:51:26.610Z,29.08
2023-05-12T13:53:53.810Z,29.05
2023-05-12T13:56:20.701Z,30.75
2023-05-12T13:58:47.850Z,31.35
2023-05-12T14:01:15.017Z,31.98
2023-05-12T14:03:42.467Z,31.88
2023-05-12T14:06:09.321Z,32.83
2023-05-12T14:08:36.238Z,31.67
2023-05-12T14:11:02.973Z,32.50
2023-05-12T14:13:29.690Z,32.30
2023-05-12T14:15:56.864Z,34.15
2023-05-12T14:18:24.705Z,31.73
2023-05-12T14:20:51.730Z,32.95
2023-05-12T14:23:18.506Z,32.95
2023-05-12T14:25:45.249Z,33.53
2023-05-12T14:28:11.894Z,32.83
2023-05-12T14:30:38.944Z,31.67
2023-05-12T14:33:05.641Z,32.80
2023-05-12T14:35:32.427Z,32.10
2023-05-12T14:37:59.057Z,31.35
2023-05-12T14:40:27.200Z,32.88
2023-05-12T14:42:55.081Z,31.15
2023-05-12T14:45:22.140Z,31.40
2023-05-12T14:47:49.090Z,33.45
2023-05-12T14:50:15.850Z,33.05
2023-05-12T14:52:42.639Z,30.92
2023-05-12T14:55:13.635Z,32.13
2023-05-12T14:57:41.412Z,31.33
2023-05-12T15:00:13.342Z,33.70
2023-05-12T15:02:41.502Z,33.45
2023-05-12T15:05:09.895Z,32.58
2023-05-12T15:07:37.175Z,32.47
2023-05-12T15:10:04.824Z,32.33
2023-05-12T15:12:32.283Z,32.88
2023-05-12T15:15:04.252Z,33.15
2023-05-12T15:17:31.509Z,31.98
2023-05-12T15:19:58.384Z,32.28
2023-05-12T15:22:25.029Z,34.00
2023-05-12T15:24:51.655Z,31.80
2023-05-12T15:27:18.344Z,31.80
2023-05-12T15:29:45.015Z,32.53
2023-05-12T15:32:11.700Z,32.10
2023-05-12T15:34:39.192Z,34.17
2023-05-12T15:37:06.467Z,32.92
2023-05-12T15:39:33.088Z,32.70
2023-05-12T15:42:00.721Z,31.92
2023-05-12T15:44:27.576Z,33.45
2023-05-12T15:46:54.379Z,32.08
2023-05-12T15:49:21.062Z,30.25
2023-05-12T15:51:47.730Z,30.50
2023-05-12T15:54:14.367Z,31.42
2023-05-12T15:56:41.104Z,30.58
2023-05-12T15:59:07.887Z,31.67
2023-05-12T16:01:34.589Z,33.35
2023-05-12T16:04:01.705Z,30.52
2023-05-12T16:06:28.425Z,31.55
2023-05-12T16:08:55.042Z,30.75
2023-05-12T16:11:22.201Z,33.15
2023-05-12T16:13:48.879Z,31.13
2023-05-12T16:16:15.734Z,32.25
2023-05-12T16:18:43.484Z,32.33
2023-05-12T16:21:11.649Z,34.08
2023-05-12T16:23:38.583Z,33.38
2023-05-12T16:26:05.958Z,32.30
2023-05-12T16:28:34.455Z,31.92
2023-05-12T16:31:02.049Z,32.80
2023-05-12T16:33:28.913Z,33.85
2023-05-12T16:35:55.816Z,31.65
2023-05-12T16:38:22.475Z,33.45
2023-05-12T16:40:49.255Z,34.33
2023-05-12T16:43:16.001Z,30.77
2023-05-12T16:45:42.830Z,37.75
2023-05-12T16:48:09.816Z,35.05
2023-05-12T16:50:36.813Z,33.55
2023-05-12T16:53:03.672Z,34.00
2023-05-12T16:55:30.720Z,33.47
2023-05-12T16:57:57.431Z,32.40
2023-05-12T17:00:24.256Z,36.08
2023-05-12T17:02:50.999Z,34.30
2023-05-12T17:05:17.758Z,33.30
2023-05-12T17:07:44.588Z,34.72
2023-05-12T17:10:11.668Z,34.33
2023-05-12T17:12:38.578Z,33.65
2023-05-12T17:15:08.525Z,33.50
2023-05-12T17:17:35.968Z,32.67
2023-05-12T17:20:03.793Z,34.83
2023-05-12T17:22:31.954Z,33.95
2023-05-12T17:24:58.700Z,33.60
2023-05-12T17:27:25.714Z,34.10
2023-05-12T17:29:52.341Z,33.85
2023-05-12T17:32:18.981Z,35.10
2023-05-12T17:34:49.934Z,35.63
2023-05-12T17:37:17.057Z,36.90
2023-05-12T17:39:44.335Z,37.75
2023-05-12T17:42:11.159Z,39.92
2023-05-12T17:44:37.814Z,38.88
2023-05-12T17:47:04.985Z,37.97
2023-05-12T17:49:31.705Z,39.25
2023-05-12T17:51:58.985Z,38.55
2023-05-12T17:54:25.647Z,38.90
2023-05-12T17:56:52.803Z,38.13
2023-05-12T17:59:19.459Z,39.17
2023-05-12T18:01:46.094Z,41.80
2023-05-12T18:04:12.808Z,41.40
2023-05-12T18:06:39.967Z,39.47
2023-05-12T18:09:06.825Z,38.95
2023-05-12T18:11:34.248Z,36.70
2023-05-12T18:14:02.503Z,31.90
2023-05-12T18:16:29.806Z,35.20
2023-05-12T18:18:57.065Z,32.13
2023-05-12T18:21:24.153Z,29.23
2023-05-12T18:23:50.897Z,31.80
2023-05-12T18:26:17.703Z,33.05
2023-05-12T18:28:44.382Z,32.92
2023-05-12T18:33:40.749Z,30.92
2023-05-12T18:36:07.964Z,31.75
2023-05-12T18:38:34.787Z,31.98
2023-05-12T18:41:01.465Z,31.45
2023-05-12T18:43:28.392Z,32.72
2023-05-12T18:45:55.000Z,32.55
2023-05-12T18:48:21.642Z,31.50
2023-05-12T18:50:48.416Z,30.92
2023-05-12T18:53:15.062Z,31.73
2023-05-12T18:55:42.548Z,31.42
2023-05-12T18:58:09.350Z,24.25
2023-05-12T19:00:36.069Z,24.05
2023-05-12T19:03:02.953Z,25.02
2023-05-12T19:05:30.482Z,24.48
2023-05-12T19:07:57.233Z,25.48
2023-05-12T19:10:23.976Z,25.00
2023-05-12T19:12:53.405Z,25.02
2023-05-12T19:15:21.521Z,25.25
2023-05-12T19:17:49.064Z,31.05
2023-05-12T19:20:15.863Z,24.85
2023-05-12T19:22:42.781Z,24.80
2023-05-12T19:25:09.715Z,25.10
2023-05-12T19:27:36.427Z,24.50
2023-05-12T19:30:05.034Z,24.77
2023-05-12T19:32:32.762Z,28.20
2023-05-12T19:35:00.759Z,28.25
2023-05-12T19:37:27.735Z,27.98
2023-05-12T19:39:54.382Z,26.02
2023-05-12T19:42:21.399Z,25.27
2023-05-12T19:44:48.038Z,26.35
2023-05-12T19:47:14.829Z,25.00
2023-05-12T19:49:41.654Z,29.65
2023-05-12T19:52:08.601Z,24.70
2023-05-12T19:54:36.008Z,26.23
2023-05-12T19:57:03.112Z,24.65
2023-05-12T19:59:29.878Z,25.52
2023-05-12T20:01:56.645Z,24.88
2023-05-12T20:04:23.427Z,26.52
2023-05-12T20:06:50.830Z,26.52
2023-05-12T20:09:20.365Z,26.55
2023-05-12T20:11:47.154Z,26.73
2023-05-12T20:14:14.046Z,28.17
2023-05-12T20:16:40.731Z,28.23
2023-05-12T20:19:07.634Z,30.00
2023-05-12T20:21:34.388Z,28.88
2023-05-12T20:24:01.187Z,29.95
2023-05-12T20:26:28.587Z,29.38
2023-05-12T20:28:55.595Z,27.73
2023-05-12T20:31:22.387Z,27.70
2023-05-12T20:33:49.551Z,28.60
2023-05-12T20:36:16.185Z,27.85
2023-05-12T20:38:42.883Z,29.42
2023-05-12T20:41:10.585Z,27.45
2023-05-12T20:43:37.729Z,28.45
2023-05-12T20:46:05.285Z,29.20
2023-05-12T20:48:32.709Z,30.20
2023-05-12T20:50:59.544Z,29.60
2023-05-12T20:53:26.271Z,29.40
2023-05-12T20:55:52.925Z,30.65
2023-05-12T20:58:19.608Z,30.77
2023-05-12T21:00:46.269Z,30.38
2023-05-12T21:03:17.333Z,30.48
2023-05-12T21:05:47.875Z,28.75
2023-05-12T21:08:14.769Z,28.35
2023-05-12T21:10:41.569Z,28.92
2023-05-12T21:13:08.301Z,29.27
2023-05-12T21:15:35.389Z,28.88
2023-05-12T21:18:02.268Z,29.95
2023-05-12T21:20:28.959Z,30.02
2023-05-12T21:22:56.913Z,30.58
2023-05-12T21:25:24.028Z,29.42
2023-05-12T21:27:51.694Z,29.75
2023-05-12T21:30:18.642Z,30.08
2023-05-12T21:32:45.644Z,29.50
2023-05-12T21:35:12.460Z,30.88
2023-05-12T21:37:39.175Z,29.63
2023-05-12T21:40:06.733Z,29.58
2023-05-12T21:42:33.400Z,28.13
2023-05-12T21:45:00.210Z,28.13
2023-05-12T21:47:26.904Z,26.38
2023-05-12T21:49:54.819Z,25.40
2023-05-12T21:52:22.257Z,24.27
2023-05-12T21:54:49.204Z,24.35
2023-05-12T21:57:16.792Z,23.80
2023-05-12T21:59:43.446Z,24.67
2023-05-12T22:02:10.189Z,23.92
2023-05-12T22:04:36.839Z,24.33
2023-05-12T22:07:03.529Z,23.35
2023-05-12T22:09:31.272Z,23.90
2023-05-12T22:11:58.135Z,23.35
2023-05-12T22:14:24.873Z,22.85
2023-05-12T22:16:51.633Z,22.77
2023-05-12T22:19:19.484Z,23.35
2023-05-12T22:21:46.186Z,23.77
2023-05-12T22:24:12.837Z,24.08
2023-05-12T22:26:39.532Z,24.55
2023-05-12T22:29:06.505Z,24.33
2023-05-12T22:31:33.404Z,23.17
2023-05-12T22:34:00.294Z,24.88
2023-05-12T22:36:27.194Z,23.90
2023-05-12T22:38:53.933Z,23.13
2023-05-12T22:41:20.745Z,23.33
2023-05-12T22:43:47.387Z,24.13
2023-05-12T22:46:14.072Z,24.63
2023-05-12T22:48:40.850Z,24.10
2023-05-12T22:51:07.677Z,24.33
2023-05-12T22:53:41.298Z,25.52
2023-05-12T22:56:08.469Z,24.50
2023-05-12T22:58:35.247Z,26.08
2023-05-12T23:01:02.151Z,25.77
2023-05-12T23:03:29.020Z,25.42
2023-05-12T23:05:56.119Z,26.23
2023-05-12T23:08:22.841Z,25.90
2023-05-12T23:10:49.691Z,24.60
2023-05-12T23:13:16.470Z,26.17
2023-05-12T23:15:43.092Z,24.73
2023-05-12T23:18:09.832Z,26.33
2023-05-12T23:20:36.489Z,25.23
2023-05-12T23:23:03.267Z,25.90
2023-05-12T23:25:30.211Z,25.67
2023-05-12T23:27:56.899Z,25.98
2023-05-12T23:30:23.977Z,26.60
2023-05-12T23:32:50.899Z,26.55
2023-05-12T23:35:17.690Z,25.38
2023-05-12T23:37:44.429Z,25.80
2023-05-12T23:40:11.489Z,24.70
2023-05-12T23:42:38.372Z,24.08
2023-05-12T23:45:06.302Z,24.38
2023-05-12T23:47:33.461Z,24.33
2023-05-12T23:50:00.212Z,23.65
2023-05-12T23:52:26.886Z,25.58
2023-05-12T23:54:53.570Z,24.38
2023-05-12T23:57:20.382Z,24.52
2023-05-12T23:59:47.027Z,24.90
